Time;durP1;ratioP1;P1;durP2;ratioP2;P2;SDS_P1;SDS_P2;PMS_P1;PMS_P2;Temp;Humidity;BMP_temperature;BMP_pressure;BME280_temperature;BME280_humidity;BME280_pressure;Samples;Min_cycle;Max_cycle;Signal;HPM_P1;HPM_P2
2022/07/06 00:01:56;;;;;;;;;;;14.70;99.90;;;;;;6192370;23;19915;-84
2022/07/06 00:04:22;;;;;;;;;;;14.70;99.90;;;;;;6193236;23;19973;-87
2022/07/06 00:06:47;;;;;;;;;;;14.70;99.90;;;;;;6243104;23;19922;-85
2022/07/06 00:09:13;;;;;;;;;;;14.70;99.90;;;;;;6217647;23;19923;-84
2022/07/06 00:11:38;;;;;;;;;;;14.70;99.90;;;;;;6218178;23;20286;-84
2022/07/06 00:14:04;;;;;;;;;;;14.70;99.90;;;;;;6217086;23;19915;-84
2022/07/06 00:16:30;;;;;;;;;;;14.70;99.90;;;;;;6193022;23;20243;-84
2022/07/06 00:18:56;;;;;;;;;;;14.70;99.90;;;;;;6192439;23;19915;-90
2022/07/06 00:21:21;;;;;;;;;;;14.70;99.90;;;;;;6217656;23;20339;-84
2022/07/06 00:23:47;;;;;;;;;;;14.60;99.90;;;;;;6218152;23;19916;-84
2022/07/06 00:26:13;;;;;;;;;;;14.60;99.90;;;;;;6167410;23;20446;-84
2022/07/06 00:28:38;;;;;;;;;;;14.60;99.90;;;;;;6217222;23;19953;-84
2022/07/06 00:31:05;;;;;;;;;;;14.50;99.90;;;;;;6166859;23;19939;-85
2022/07/06 00:33:31;;;;;;;;;;;14.50;99.90;;;;;;6217806;23;19915;-84
2022/07/06 00:35:57;;;;;;;;;;;14.50;99.90;;;;;;6217318;23;20378;-86
2022/07/06 00:38:22;;;;;;;;;;;14.40;99.90;;;;;;6217092;23;19915;-84
2022/07/06 00:40:48;;;;;;;;;;;14.50;99.90;;;;;;6193019;23;20635;-84
2022/07/06 00:43:14;;;;;;;;;;;14.40;99.90;;;;;;6192196;23;19962;-84
2022/07/06 00:45:39;;;;;;;;;;;14.40;99.90;;;;;;6192890;23;19919;-84
2022/07/06 00:48:05;;;;;;;;;;;14.40;99.90;;;;;;6217366;23;20287;-84
2022/07/06 00:50:31;;;;;;;;;;;14.40;99.90;;;;;;6219622;23;20316;-85
2022/07/06 00:52:59;;;;;;;;;;;14.30;99.90;;;;;;6194435;23;19962;-84
2022/07/06 00:55:26;;;;;;;;;;;14.30;99.90;;;;;;6218755;23;20002;-84
2022/07/06 00:57:51;;;;;;;;;;;14.30;99.90;;;;;;6219283;23;20362;-84
2022/07/06 01:00:18;;;;;;;;;;;14.30;99.90;;;;;;6194048;23;19916;-84
2022/07/06 01:02:44;;;;;;;;;;;14.20;99.90;;;;;;6219572;23;19922;-84
2022/07/06 01:05:11;;;;;;;;;;;14.30;99.90;;;;;;6168553;23;19924;-85
2022/07/06 01:07:37;;;;;;;;;;;14.20;99.90;;;;;;6219684;23;19958;-84
2022/07/06 01:10:03;;;;;;;;;;;14.20;99.90;;;;;;6218601;23;19958;-89
2022/07/06 01:12:29;;;;;;;;;;;14.20;99.90;;;;;;6219556;23;19937;-84
2022/07/06 01:14:54;;;;;;;;;;;14.20;99.90;;;;;;6219372;23;20429;-84
2022/07/06 01:17:20;;;;;;;;;;;14.20;99.90;;;;;;6193335;23;20327;-87
2022/07/06 01:19:48;;;;;;;;;;;14.10;99.90;;;;;;6219090;23;20008;-84
2022/07/06 01:22:14;;;;;;;;;;;14.10;99.90;;;;;;6218720;23;20001;-83
2022/07/06 01:24:39;;;;;;;;;;;14.10;99.90;;;;;;6218985;23;19915;-83
2022/07/06 01:27:05;;;;;;;;;;;14.10;99.90;;;;;;6193231;23;19919;-88
2022/07/06 01:29:34;;;;;;;;;;;14.10;99.90;;;;;;6218804;23;19915;-84
2022/07/06 01:31:59;;;;;;;;;;;13.00;99.90;;;;;;6219443;23;19958;-84
2022/07/06 01:34:25;;;;;;;;;;;14.00;99.90;;;;;;6193874;23;19920;-84
2022/07/06 01:36:51;;;;;;;;;;;14.00;99.90;;;;;;6193528;23;19920;-84
2022/07/06 01:39:16;;;;;;;;;;;14.00;99.90;;;;;;6217900;23;20243;-85
2022/07/06 01:41:42;;;;;;;;;;;14.00;99.90;;;;;;6218415;23;19915;-84
2022/07/06 01:44:08;;;;;;;;;;;14.00;99.90;;;;;;6218514;23;19915;-90
2022/07/06 01:46:33;;;;;;;;;;;13.90;99.90;;;;;;6218762;23;19969;-84
2022/07/06 01:48:59;;;;;;;;;;;14.00;99.90;;;;;;6218357;23;19995;-84
2022/07/06 01:51:25;;;;;;;;;;;14.00;99.90;;;;;;6193212;23;19915;-84
2022/07/06 01:53:51;;;;;;;;;;;14.00;99.90;;;;;;6194223;23;19922;-84
2022/07/06 01:56:19;;;;;;;;;;;14.00;99.90;;;;;;6217954;23;19923;-84
2022/07/06 01:58:45;;;;;;;;;;;13.90;99.90;;;;;;6193194;23;19915;-84
2022/07/06 02:01:12;;;;;;;;;;;13.90;99.90;;;;;;6217938;23;19916;-88
2022/07/06 02:03:38;;;;;;;;;;;14.00;99.90;;;;;;6193929;23;20035;-84
2022/07/06 02:06:04;;;;;;;;;;;13.90;99.90;;;;;;6244155;23;19915;-84
2022/07/06 02:08:30;;;;;;;;;;;13.90;99.90;;;;;;6168534;23;19919;-84
2022/07/06 02:10:55;;;;;;;;;;;13.90;99.90;;;;;;6218015;23;19964;-86
2022/07/06 02:13:21;;;;;;;;;;;13.80;99.90;;;;;;6193284;23;19916;-84
2022/07/06 02:15:46;;;;;;;;;;;13.90;99.90;;;;;;6169046;23;19915;-84
2022/07/06 02:18:12;;;;;;;;;;;13.90;99.90;;;;;;6218366;23;19916;-89
2022/07/06 02:20:38;;;;;;;;;;;14.00;99.90;;;;;;6218338;23;19947;-84
2022/07/06 02:23:03;;;;;;;;;;;13.90;99.90;;;;;;6218645;23;19970;-85
2022/07/06 02:25:29;;;;;;;;;;;13.80;99.90;;;;;;6218165;23;19923;-84
2022/07/06 02:27:54;;;;;;;;;;;13.80;99.90;;;;;;6218192;23;19915;-87
2022/07/06 02:30:20;;;;;;;;;;;13.80;99.90;;;;;;6217664;23;19926;-84
2022/07/06 02:32:46;;;;;;;;;;;13.80;99.90;;;;;;6218383;23;19939;-84
2022/07/06 02:35:12;;;;;;;;;;;13.80;99.90;;;;;;6193516;23;19969;-85
2022/07/06 02:37:37;;;;;;;;;;;13.80;99.90;;;;;;6218029;23;19915;-84
2022/07/06 02:40:03;;;;;;;;;;;13.80;99.90;;;;;;6217911;23;19990;-84
2022/07/06 02:42:28;;;;;;;;;;;13.90;99.90;;;;;;6193058;23;19916;-83
2022/07/06 02:44:54;;;;;;;;;;;13.90;99.90;;;;;;6168387;23;19947;-83
2022/07/06 02:47:20;;;;;;;;;;;13.90;99.90;;;;;;6193083;23;19920;-84
2022/07/06 02:49:45;;;;;;;;;;;13.90;99.90;;;;;;6218204;23;19915;-84
2022/07/06 02:52:11;;;;;;;;;;;13.90;99.90;;;;;;6193590;23;20319;-84
2022/07/06 02:54:37;;;;;;;;;;;13.90;99.90;;;;;;6192589;23;19915;-83
2022/07/06 02:57:02;;;;;;;;;;;13.90;99.90;;;;;;6218188;23;19916;-84
2022/07/06 02:59:28;;;;;;;;;;;13.90;99.90;;;;;;6217550;23;20290;-84
2022/07/06 03:01:53;;;;;;;;;;;14.00;99.90;;;;;;6218224;23;19923;-84
2022/07/06 03:04:19;;;;;;;;;;;13.90;99.90;;;;;;6217998;23;20288;-87
2022/07/06 03:06:44;;;;;;;;;;;13.90;99.90;;;;;;6217806;23;19939;-83
2022/07/06 03:09:10;;;;;;;;;;;13.90;99.90;;;;;;6217938;23;19951;-84
2022/07/06 03:11:36;;;;;;;;;;;13.90;99.90;;;;;;6167923;23;19922;-84
2022/07/06 03:14:05;;;;;;;;;;;13.90;99.90;;;;;;6218462;23;19921;-84
2022/07/06 03:16:30;;;;;;;;;;;13.90;99.90;;;;;;6192511;23;19942;-84
2022/07/06 03:18:56;;;;;;;;;;;13.90;99.90;;;;;;6193146;23;20323;-83
2022/07/06 03:21:22;;;;;;;;;;;13.90;99.90;;;;;;6192337;23;19986;-85
2022/07/06 03:23:48;;;;;;;;;;;13.90;99.90;;;;;;6217730;23;20009;-85
2022/07/06 03:26:13;;;;;;;;;;;14.00;99.90;;;;;;6193490;23;19982;-84
2022/07/06 03:28:39;;;;;;;;;;;14.00;99.90;;;;;;6217507;23;20374;-84
2022/07/06 03:31:04;;;;;;;;;;;13.90;99.90;;;;;;6217689;23;20346;-83
2022/07/06 03:33:30;;;;;;;;;;;13.10;99.90;;;;;;6217592;23;19946;-84
2022/07/06 03:35:56;;;;;;;;;;;13.90;99.90;;;;;;6218037;23;19915;-84
2022/07/06 03:38:21;;;;;;;;;;;13.80;99.90;;;;;;6218364;23;19916;-86
2022/07/06 03:40:47;;;;;;;;;;;13.90;99.90;;;;;;6217582;23;19990;-83
2022/07/06 03:43:13;;;;;;;;;;;13.90;99.90;;;;;;6218084;23;19986;-84
2022/07/06 03:45:38;;;;;;;;;;;13.90;99.90;;;;;;6167223;23;20275;-83
2022/07/06 03:48:04;;;;;;;;;;;13.80;99.90;;;;;;6218036;23;19951;-84
2022/07/06 03:50:30;;;;;;;;;;;13.80;99.90;;;;;;6191983;23;19930;-84
2022/07/06 03:52:55;;;;;;;;;;;13.80;99.90;;;;;;6218019;23;19950;-84
2022/07/06 03:55:21;;;;;;;;;;;13.80;99.90;;;;;;6192331;23;19915;-83
2022/07/06 03:57:47;;;;;;;;;;;13.80;99.90;;;;;;6217519;23;19968;-84
2022/07/06 04:00:12;;;;;;;;;;;13.80;99.90;;;;;;6218068;23;19915;-85
2022/07/06 04:02:38;;;;;;;;;;;13.80;99.90;;;;;;6217146;23;19922;-84
2022/07/06 04:05:04;;;;;;;;;;;13.80;99.90;;;;;;6167795;23;19915;-84
2022/07/06 04:07:30;;;;;;;;;;;13.80;99.90;;;;;;6167605;23;19916;-84
2022/07/06 04:09:55;;;;;;;;;;;13.80;99.90;;;;;;6218118;23;19938;-83
2022/07/06 04:12:21;;;;;;;;;;;13.80;99.90;;;;;;6167724;23;19916;-84
2022/07/06 04:14:46;;;;;;;;;;;13.80;99.90;;;;;;6191516;23;19992;-83
2022/07/06 04:19:56;;;;;;;;;;;13.70;99.90;;;;;;6196593;23;19922;-84
2022/07/06 04:22:22;;;;;;;;;;;13.70;99.90;;;;;;6217734;23;19915;-83
2022/07/06 04:24:47;;;;;;;;;;;13.70;99.90;;;;;;6218703;23;19977;-84
2022/07/06 04:27:13;;;;;;;;;;;13.70;99.90;;;;;;6194181;23;19919;-86
2022/07/06 04:29:38;;;;;;;;;;;13.70;99.90;;;;;;6219482;23;20323;-83
2022/07/06 04:32:04;;;;;;;;;;;13.70;99.90;;;;;;6194670;23;19923;-83
2022/07/06 04:34:30;;;;;;;;;;;13.80;99.90;;;;;;6219619;23;19954;-87
2022/07/06 04:36:55;;;;;;;;;;;13.80;99.90;;;;;;6219063;23;20209;-87
2022/07/06 04:39:21;;;;;;;;;;;13.80;99.90;;;;;;6219764;23;20005;-83
2022/07/06 04:41:46;;;;;;;;;;;13.90;99.90;;;;;;6194003;23;19915;-88
2022/07/06 04:44:12;;;;;;;;;;;13.90;99.90;;;;;;6194317;23;19921;-83
2022/07/06 04:46:37;;;;;;;;;;;13.90;99.90;;;;;;6219324;23;19981;-83
2022/07/06 04:49:03;;;;;;;;;;;13.90;99.90;;;;;;6219719;23;19920;-83
2022/07/06 04:51:28;;;;;;;;;;;14.00;99.90;;;;;;6169350;23;20337;-84
2022/07/06 04:53:54;;;;;;;;;;;14.10;99.90;;;;;;6193852;23;19915;-83
2022/07/06 04:56:19;;;;;;;;;;;14.10;99.90;;;;;;6194367;23;19997;-83
2022/07/06 04:58:45;;;;;;;;;;;14.20;99.90;;;;;;6218861;23;19916;-83
2022/07/06 05:01:11;;;;;;;;;;;14.20;99.90;;;;;;6219496;23;19972;-83
2022/07/06 05:03:39;;;;;;;;;;;14.30;99.90;;;;;;6218584;23;20278;-84
2022/07/06 05:06:05;;;;;;;;;;;14.20;99.90;;;;;;6244453;23;19922;-83
2022/07/06 05:08:31;;;;;;;;;;;14.20;99.90;;;;;;6194266;23;19947;-84
2022/07/06 05:10:56;;;;;;;;;;;14.20;99.90;;;;;;6168584;23;19927;-83
2022/07/06 05:13:22;;;;;;;;;;;14.20;99.90;;;;;;6218849;23;20317;-84
2022/07/06 05:15:47;;;;;;;;;;;14.20;99.90;;;;;;6193758;23;19916;-83
2022/07/06 05:18:13;;;;;;;;;;;14.20;99.90;;;;;;6219298;23;19922;-83
2022/07/06 05:20:38;;;;;;;;;;;14.20;99.90;;;;;;6218902;23;20299;-84
2022/07/06 05:23:04;;;;;;;;;;;14.20;99.90;;;;;;6218693;23;19926;-84
2022/07/06 05:25:30;;;;;;;;;;;14.20;99.90;;;;;;6169440;23;19990;-84
2022/07/06 05:27:55;;;;;;;;;;;14.20;99.90;;;;;;6218530;23;19922;-83
2022/07/06 05:30:21;;;;;;;;;;;14.20;99.90;;;;;;6219464;23;19965;-83
2022/07/06 05:32:46;;;;;;;;;;;13.80;99.90;;;;;;6218349;23;19994;-84
2022/07/06 05:35:12;;;;;;;;;;;14.20;99.90;;;;;;6218631;23;19923;-83
2022/07/06 05:37:38;;;;;;;;;;;14.20;99.90;;;;;;6219059;23;20240;-88
2022/07/06 05:40:03;;;;;;;;;;;14.30;99.90;;;;;;6218830;23;19916;-83
2022/07/06 05:42:29;;;;;;;;;;;14.30;99.90;;;;;;6218569;23;19990;-83
2022/07/06 05:44:56;;;;;;;;;;;14.30;99.90;;;;;;6218265;23;19938;-83
2022/07/06 05:50:12;;;;;;;;;;;14.30;99.90;;;;;;6219343;23;20294;-84
2022/07/06 05:52:44;;;;;;;;;;;14.30;99.90;;;;;;6221715;23;19915;-84
2022/07/06 05:55:11;;;;;;;;;;;14.30;99.90;;;;;;6169348;23;20331;-85
2022/07/06 05:57:36;;;;;;;;;;;14.40;99.90;;;;;;6194715;23;19915;-86
2022/07/06 06:00:03;;;;;;;;;;;14.40;99.90;;;;;;6193436;23;19969;-86
2022/07/06 06:02:39;;;;;;;;;;;14.40;99.90;;;;;;6222915;23;20383;-86
2022/07/06 06:05:05;;;;;;;;;;;14.40;99.90;;;;;;6193582;23;19915;-85
2022/07/06 06:07:32;;;;;;;;;;;14.50;99.90;;;;;;6219163;23;20049;-86
2022/07/06 06:09:58;;;;;;;;;;;14.50;99.90;;;;;;6218655;23;19959;-86
2022/07/06 06:12:23;;;;;;;;;;;14.50;99.90;;;;;;6219083;23;19925;-85
2022/07/06 06:14:49;;;;;;;;;;;14.50;99.90;;;;;;6219021;23;19915;-84
2022/07/06 06:17:14;;;;;;;;;;;14.50;99.90;;;;;;6218863;23;19970;-84
2022/07/06 06:19:40;;;;;;;;;;;14.50;99.90;;;;;;6193869;23;19926;-84
2022/07/06 06:22:06;;;;;;;;;;;14.40;99.90;;;;;;6218192;23;19930;-85
2022/07/06 06:24:32;;;;;;;;;;;14.40;99.90;;;;;;6218331;23;19915;-85
2022/07/06 06:26:59;;;;;;;;;;;14.40;99.90;;;;;;6167373;23;19923;-84
2022/07/06 06:29:27;;;;;;;;;;;14.40;99.90;;;;;;6218705;23;20331;-84
2022/07/06 06:31:52;;;;;;;;;;;14.00;99.90;;;;;;6193212;23;19927;-84
2022/07/06 06:34:18;;;;;;;;;;;14.40;99.90;;;;;;6245842;23;19920;-85
2022/07/06 06:36:43;;;;;;;;;;;14.50;99.90;;;;;;6218664;23;19922;-85
2022/07/06 06:39:09;;;;;;;;;;;14.50;99.90;;;;;;6168975;23;19965;-85
2022/07/06 06:41:34;;;;;;;;;;;13.40;99.90;;;;;;6169002;23;20311;-87
2022/07/06 06:44:00;;;;;;;;;;;14.70;99.90;;;;;;6217929;23;19923;-88
2022/07/06 06:46:26;;;;;;;;;;;14.70;99.90;;;;;;6193350;23;19926;-88
2022/07/06 06:48:54;;;;;;;;;;;14.80;99.90;;;;;;6194058;23;19919;-92
2022/07/06 06:51:20;;;;;;;;;;;14.80;99.90;;;;;;6194666;23;20316;-89
2022/07/06 06:53:47;;;;;;;;;;;14.80;99.90;;;;;;6219210;23;20378;-91
2022/07/06 06:56:31;;;;;;;;;;;16.10;99.90;;;;;;6192505;23;19976;-95
2022/07/06 06:59:01;;;;;;;;;;;14.90;99.90;;;;;;6194020;23;19923;-94
2022/07/06 07:01:32;;;;;;;;;;;15.00;99.90;;;;;;6170108;23;19915;-96
2022/07/06 07:04:01;;;;;;;;;;;14.60;99.90;;;;;;6194725;23;19922;-91
2022/07/06 07:06:34;;;;;;;;;;;14.90;99.90;;;;;;6170190;23;20327;-95
2022/07/06 07:08:59;;;;;;;;;;;15.00;99.90;;;;;;6170948;23;19994;-95
2022/07/06 07:11:25;;;;;;;;;;;14.90;99.90;;;;;;6195692;23;20001;-94
2022/07/06 07:13:51;;;;;;;;;;;15.00;99.90;;;;;;6195254;23;19985;-95
2022/07/06 07:16:33;;;;;;;;;;;15.50;99.90;;;;;;6170828;23;20356;-95
2022/07/06 07:19:00;;;;;;;;;;;14.80;99.90;;;;;;6195835;23;20394;-95
2022/07/06 07:21:26;;;;;;;;;;;15.10;99.90;;;;;;6196331;23;19915;-95
2022/07/06 07:23:57;;;;;;;;;;;15.10;99.90;;;;;;6195228;23;19915;-89
2022/07/06 07:26:22;;;;;;;;;;;15.20;99.90;;;;;;6169707;23;19915;-87
2022/07/06 07:28:48;;;;;;;;;;;15.30;99.90;;;;;;6193320;23;20410;-91
2022/07/06 07:31:13;;;;;;;;;;;16.20;99.90;;;;;;6218179;23;20447;-88
2022/07/06 07:33:39;;;;;;;;;;;15.60;99.90;;;;;;6192802;23;19937;-88
2022/07/06 07:36:08;;;;;;;;;;;15.80;99.90;;;;;;6193253;23;19915;-88
2022/07/06 07:38:41;;;;;;;;;;;16.00;99.90;;;;;;6169578;23;19969;-88
2022/07/06 07:41:06;;;;;;;;;;;16.30;99.90;;;;;;6193634;23;19919;-88
2022/07/06 07:43:32;;;;;;;;;;;16.60;99.90;;;;;;6193845;23;19962;-88
2022/07/06 07:45:58;;;;;;;;;;;16.80;99.90;;;;;;6193361;23;19997;-88
2022/07/06 07:48:23;;;;;;;;;;;17.00;99.90;;;;;;6194415;23;19965;-88
2022/07/06 07:50:49;;;;;;;;;;;17.10;99.90;;;;;;6193915;23;20335;-88
2022/07/06 07:53:15;;;;;;;;;;;17.30;99.90;;;;;;6193221;23;19915;-87
2022/07/06 07:55:40;;;;;;;;;;;17.50;99.90;;;;;;6193621;23;19919;-88
2022/07/06 07:58:08;;;;;;;;;;;17.60;99.90;;;;;;6193535;23;19915;-88
2022/07/06 08:00:36;;;;;;;;;;;16.70;99.90;;;;;;6246189;23;19919;-87
2022/07/06 08:03:02;;;;;;;;;;;18.00;99.90;;;;;;6170477;23;20339;-88
2022/07/06 08:05:28;;;;;;;;;;;18.00;99.90;;;;;;6195982;23;20296;-88
2022/07/06 08:07:56;;;;;;;;;;;18.10;99.90;;;;;;6195885;23;19951;-88
2022/07/06 08:10:22;;;;;;;;;;;17.90;99.90;;;;;;6194956;23;19966;-88
2022/07/06 08:12:50;;;;;;;;;;;17.80;99.90;;;;;;6196040;23;20378;-88
2022/07/06 08:15:16;;;;;;;;;;;17.50;99.90;;;;;;6170402;23;19941;-87
2022/07/06 08:17:41;;;;;;;;;;;17.30;99.90;;;;;;6221081;23;19938;-88
2022/07/06 08:20:08;;;;;;;;;;;17.00;99.90;;;;;;6195186;23;19916;-88
2022/07/06 08:22:37;;;;;;;;;;;16.90;99.90;;;;;;6195581;23;19922;-87
2022/07/06 08:25:03;;;;;;;;;;;16.70;99.90;;;;;;6195156;23;20217;-90
2022/07/06 08:27:28;;;;;;;;;;;16.70;99.90;;;;;;6195202;23;19958;-87
2022/07/06 08:29:54;;;;;;;;;;;16.60;99.90;;;;;;6220936;23;19915;-87
2022/07/06 08:32:20;;;;;;;;;;;16.60;99.90;;;;;;6220213;23;20255;-88
2022/07/06 08:34:49;;;;;;;;;;;16.80;99.90;;;;;;6171084;23;19915;-87
2022/07/06 08:37:14;;;;;;;;;;;16.90;99.90;;;;;;6194950;23;20243;-88
2022/07/06 08:39:42;;;;;;;;;;;17.10;99.90;;;;;;6195637;23;19919;-87
2022/07/06 08:42:09;;;;;;;;;;;17.00;99.90;;;;;;6195424;23;20321;-87
2022/07/06 08:44:36;;;;;;;;;;;17.00;99.90;;;;;;6220735;23;19965;-88
2022/07/06 08:47:04;;;;;;;;;;;16.90;99.90;;;;;;6195268;23;20291;-87
2022/07/06 08:49:31;;;;;;;;;;;17.00;99.90;;;;;;6195059;23;19922;-87
2022/07/06 08:51:57;;;;;;;;;;;17.00;99.90;;;;;;6195462;23;19946;-88
2022/07/06 08:54:25;;;;;;;;;;;17.20;99.90;;;;;;6194724;23;19916;-88
2022/07/06 08:56:50;;;;;;;;;;;17.20;99.90;;;;;;6194891;23;19919;-88
2022/07/06 08:59:16;;;;;;;;;;;17.30;99.90;;;;;;6194802;23;19965;-88
2022/07/06 09:01:48;;;;;;;;;;;17.50;99.90;;;;;;6170207;23;19916;-88
2022/07/06 09:04:18;;;;;;;;;;;17.10;99.90;;;;;;6169158;23;19915;-89
2022/07/06 09:06:53;;;;;;;;;;;17.60;99.90;;;;;;6195176;23;19915;-93
2022/07/06 09:09:33;;;;;;;;;;;;;;;;;;;;;
2022/07/06 09:12:02;;;;;;;;;;;18.90;99.90;;;;;;6221837;23;19915;-87
2022/07/06 09:14:37;;;;;;;;;;;18.10;99.90;;;;;;6220610;23;19911;-94
2022/07/06 09:17:33;;;;;;;;;;;18.90;99.90;;;;;;6197826;23;19915;-95
2022/07/06 09:19:58;;;;;;;;;;;18.50;99.90;;;;;;6196297;23;19994;-91
2022/07/06 09:22:31;;;;;;;;;;;18.50;99.90;;;;;;6202421;23;19915;-90
2022/07/06 09:25:04;;;;;;;;;;;18.50;99.90;;;;;;6197358;23;19915;-87
2022/07/06 09:27:29;;;;;;;;;;;18.40;99.90;;;;;;6188545;23;19912;-87
2022/07/06 09:29:59;;;;;;;;;;;18.40;99.90;;;;;;6188992;23;19915;-88
2022/07/06 09:32:24;;;;;;;;;;;18.40;99.90;;;;;;6188544;23;19978;-90
2022/07/06 09:34:50;;;;;;;;;;;18.20;99.90;;;;;;6189245;23;19920;-88
2022/07/06 09:37:15;;;;;;;;;;;18.30;99.90;;;;;;6187807;23;19916;-88
2022/07/06 09:39:42;;;;;;;;;;;18.40;99.90;;;;;;6189493;23;19922;-87
2022/07/06 09:42:08;;;;;;;;;;;18.60;99.90;;;;;;6189545;23;19994;-87
2022/07/06 09:44:36;;;;;;;;;;;18.60;99.90;;;;;;6188571;23;20009;-88
2022/07/06 09:47:11;;;;;;;;;;;18.60;99.90;;;;;;6214109;23;19923;-88
2022/07/06 09:49:40;;;;;;;;;;;18.60;99.90;;;;;;6189843;23;20030;-88
2022/07/06 09:52:07;;;;;;;;;;;18.50;99.90;;;;;;6164365;23;20313;-88
2022/07/06 09:54:34;;;;;;;;;;;18.50;99.90;;;;;;6188987;23;20103;-88
2022/07/06 09:57:00;;;;;;;;;;;17.30;99.90;;;;;;6188617;23;19927;-88
2022/07/06 09:59:29;;;;;;;;;;;18.30;99.90;;;;;;6213873;23;19922;-88
2022/07/06 10:01:56;;;;;;;;;;;18.40;99.90;;;;;;6213916;23;19916;-88
2022/07/06 10:04:22;;;;;;;;;;;18.40;99.90;;;;;;6191519;23;19962;-87
2022/07/06 10:06:48;;;;;;;;;;;18.40;99.90;;;;;;6191455;23;19915;-88
2022/07/06 10:09:31;;;;;;;;;;;18.50;99.90;;;;;;6189085;23;19923;-88
2022/07/06 10:12:00;;;;;;;;;;;18.50;99.90;;;;;;6213988;23;19923;-87
2022/07/06 10:14:30;;;;;;;;;;;18.50;99.90;;;;;;6194402;23;19954;-91
2022/07/06 10:16:57;;;;;;;;;;;18.60;99.90;;;;;;6214658;23;19916;-87
2022/07/06 10:19:23;;;;;;;;;;;18.60;99.90;;;;;;6187871;23;19922;-87
2022/07/06 10:21:51;;;;;;;;;;;18.60;99.90;;;;;;6188712;23;19943;-87
2022/07/06 10:24:20;;;;;;;;;;;18.60;99.90;;;;;;6188265;23;20217;-90
2022/07/06 10:26:46;;;;;;;;;;;18.60;99.90;;;;;;6188503;23;19915;-87
2022/07/06 10:29:11;;;;;;;;;;;18.60;99.90;;;;;;6164392;23;20415;-87
2022/07/06 10:31:39;;;;;;;;;;;18.70;99.90;;;;;;6188232;23;19947;-87
2022/07/06 10:34:06;;;;;;;;;;;18.70;99.90;;;;;;6191393;23;20379;-87
2022/07/06 10:36:36;;;;;;;;;;;18.90;99.90;;;;;;6213530;23;19916;-86
2022/07/06 10:41:02;;;;;;;;;;;19.00;99.90;;;;;;6188248;23;20343;-86
2022/07/06 10:41:47;;;;;;;;;;;19.10;99.90;;;;;;6213446;23;19920;-87
2022/07/06 10:44:23;;;;;;;;;;;19.20;99.90;;;;;;6213545;23;19931;-86
2022/07/06 10:46:53;;;;;;;;;;;19.10;99.90;;;;;;6187869;23;19916;-86
2022/07/06 10:49:18;;;;;;;;;;;19.00;99.90;;;;;;6214135;23;19919;-87
2022/07/06 10:51:44;;;;;;;;;;;18.90;99.90;;;;;;6187255;23;19915;-86
2022/07/06 10:54:09;;;;;;;;;;;18.80;99.90;;;;;;6212857;23;20240;-88
2022/07/06 10:56:39;;;;;;;;;;;18.80;99.90;;;;;;6213104;23;19916;-87
2022/07/06 10:59:11;;;;;;;;;;;18.80;99.90;;;;;;6213387;23;19916;-88
2022/07/06 11:01:37;;;;;;;;;;;18.80;99.90;;;;;;6187961;23;19916;-87
2022/07/06 11:04:03;;;;;;;;;;;18.80;99.90;;;;;;6213060;23;19967;-93
2022/07/06 11:06:31;;;;;;;;;;;19.00;99.90;;;;;;6238963;23;19916;-89
2022/07/06 11:09:03;;;;;;;;;;;19.20;99.90;;;;;;6189328;23;19916;-88
2022/07/06 11:11:31;;;;;;;;;;;19.30;99.90;;;;;;6188353;23;19916;-88
2022/07/06 11:14:04;;;;;;;;;;;19.50;99.90;;;;;;6239371;23;19920;-92
2022/07/06 11:16:34;;;;;;;;;;;19.50;99.90;;;;;;6188258;23;19973;-90
2022/07/06 11:19:04;;;;;;;;;;;19.60;99.90;;;;;;6189451;23;19924;-90
2022/07/06 11:21:35;;;;;;;;;;;19.60;99.90;;;;;;6187644;23;19920;-89
2022/07/06 11:24:01;;;;;;;;;;;19.60;99.90;;;;;;6187480;23;20403;-88
2022/07/06 11:26:27;;;;;;;;;;;19.70;99.90;;;;;;6188462;23;19947;-90
2022/07/06 11:28:53;;;;;;;;;;;19.90;99.90;;;;;;6218760;23;20243;-89
2022/07/06 11:31:18;;;;;;;;;;;20.00;99.90;;;;;;6217988;23;19916;-87
2022/07/06 11:33:47;;;;;;;;;;;20.00;99.90;;;;;;6192501;23;20239;-88
2022/07/06 11:36:13;;;;;;;;;;;20.00;99.90;;;;;;6192181;23;19919;-88
2022/07/06 11:38:38;;;;;;;;;;;19.90;99.90;;;;;;6217188;23;19946;-87
2022/07/06 11:41:04;;;;;;;;;;;19.80;99.90;;;;;;6218069;23;19978;-86
2022/07/06 11:43:30;;;;;;;;;;;19.80;99.90;;;;;;6216742;23;19919;-90
2022/07/06 11:45:55;;;;;;;;;;;19.90;99.90;;;;;;6193057;23;19915;-88
2022/07/06 11:48:21;;;;;;;;;;;20.00;99.90;;;;;;6167343;23;20385;-86
2022/07/06 11:50:59;;;;;;;;;;;20.00;99.90;;;;;;6217833;23;20312;-85
2022/07/06 11:53:25;;;;;;;;;;;20.20;99.90;;;;;;6193203;23;19923;-86
2022/07/06 11:55:51;;;;;;;;;;;20.20;99.90;;;;;;6243268;23;20328;-86
2022/07/06 11:58:20;;;;;;;;;;;20.10;99.90;;;;;;6169181;23;20240;-86
2022/07/06 12:01:02;;;;;;;;;;;20.00;99.90;;;;;;6192628;23;19969;-86
2022/07/06 12:03:28;;;;;;;;;;;19.80;99.90;;;;;;6218206;23;19915;-85
2022/07/06 12:05:53;;;;;;;;;;;19.70;99.90;;;;;;6218094;23;20286;-85
2022/07/06 12:08:19;;;;;;;;;;;19.60;99.90;;;;;;6193605;23;19919;-86
2022/07/06 12:10:44;;;;;;;;;;;19.60;99.90;;;;;;6217357;23;19925;-85
2022/07/06 12:13:10;;;;;;;;;;;19.60;99.90;;;;;;6193215;23;19920;-85
2022/07/06 12:15:35;;;;;;;;;;;19.70;99.90;;;;;;6218009;23;19961;-86
2022/07/06 12:18:01;;;;;;;;;;;19.90;99.90;;;;;;6218612;23;19916;-85
2022/07/06 12:20:27;;;;;;;;;;;19.90;99.90;;;;;;6193296;23;20033;-85
2022/07/06 12:23:03;;;;;;;;;;;19.90;99.90;;;;;;6217931;23;20377;-88
2022/07/06 12:25:29;;;;;;;;;;;19.80;99.90;;;;;;6193580;23;19915;-88
2022/07/06 12:27:55;;;;;;;;;;;20.00;99.90;;;;;;6187626;23;19974;-89
2022/07/06 12:30:20;;;;;;;;;;;19.90;99.90;;;;;;6188442;23;19919;-88
2022/07/06 12:32:46;;;;;;;;;;;20.00;99.90;;;;;;6212803;23;19916;-88
2022/07/06 12:35:12;;;;;;;;;;;19.90;99.90;;;;;;6162927;23;19916;-88
2022/07/06 12:37:37;;;;;;;;;;;20.00;99.90;;;;;;6187889;23;20304;-89
2022/07/06 12:40:13;;;;;;;;;;;20.00;99.90;;;;;;6213430;23;19966;-88
2022/07/06 12:42:48;;;;;;;;;;;20.00;99.90;;;;;;6187717;23;19916;-89
2022/07/06 12:45:13;;;;;;;;;;;19.90;99.90;;;;;;6189363;23;19955;-88
2022/07/06 12:47:42;;;;;;;;;;;19.90;99.90;;;;;;6189624;23;19923;-88
2022/07/06 12:50:10;;;;;;;;;;;19.90;99.90;;;;;;6165992;23;20276;-87
2022/07/06 12:52:36;;;;;;;;;;;19.90;99.90;;;;;;6189940;23;19915;-88
2022/07/06 12:55:03;;;;;;;;;;;19.90;99.90;;;;;;6213998;23;19915;-88
2022/07/06 12:57:42;;;;;;;;;;;20.00;99.90;;;;;;6190296;23;19977;-88
2022/07/06 13:00:08;;;;;;;;;;;20.10;99.90;;;;;;6215390;23;19982;-88
2022/07/06 13:02:37;;;;;;;;;;;20.10;99.90;;;;;;6189969;23;20325;-88
2022/07/06 13:05:02;;;;;;;;;;;20.30;99.90;;;;;;6214147;23;19916;-87
2022/07/06 13:07:35;;;;;;;;;;;20.40;99.90;;;;;;6214706;23;19915;-89
2022/07/06 13:10:04;;;;;;;;;;;20.50;99.90;;;;;;6189275;23;19916;-88
2022/07/06 13:12:30;;;;;;;;;;;19.60;99.90;;;;;;6214769;23;19923;-88
2022/07/06 13:14:55;;;;;;;;;;;20.50;99.90;;;;;;6188684;23;19915;-87
2022/07/06 13:17:28;;;;;;;;;;;20.50;99.90;;;;;;6191253;23;20236;-96
2022/07/06 13:19:54;;;;;;;;;;;20.40;99.90;;;;;;6191133;23;19915;-93
2022/07/06 13:22:23;;;;;;;;;;;20.40;99.90;;;;;;6190938;23;19994;-94
2022/07/06 13:24:51;;;;;;;;;;;20.50;99.90;;;;;;6165048;23;19943;-94
2022/07/06 13:27:17;;;;;;;;;;;20.30;99.90;;;;;;6190892;23;20218;-94
2022/07/06 13:29:47;;;;;;;;;;;19.40;99.90;;;;;;6191573;23;19916;-94
2022/07/06 13:32:13;;;;;;;;;;;20.10;99.90;;;;;;6199636;23;19923;-94
2022/07/06 13:34:39;;;;;;;;;;;20.80;99.90;;;;;;6185946;23;19915;-90
2022/07/06 13:37:07;;;;;;;;;;;19.30;99.90;;;;;;6164947;23;19919;-92
2022/07/06 13:39:32;;;;;;;;;;;19.90;99.90;;;;;;6190248;23;19915;-87
2022/07/06 13:41:58;;;;;;;;;;;19.80;99.90;;;;;;6189351;23;19922;-86
2022/07/06 13:44:24;;;;;;;;;;;19.80;99.90;;;;;;6188336;23;20394;-86
2022/07/06 13:46:49;;;;;;;;;;;19.70;99.90;;;;;;6188686;23;19915;-85
2022/07/06 13:49:15;;;;;;;;;;;19.80;99.90;;;;;;6215339;23;19922;-86
2022/07/06 13:51:41;;;;;;;;;;;19.80;99.90;;;;;;6189160;23;19916;-85
2022/07/06 13:54:06;;;;;;;;;;;19.80;99.90;;;;;;6164606;23;19919;-89
2022/07/06 13:56:32;;;;;;;;;;;19.90;99.90;;;;;;6189454;23;19962;-88
2022/07/06 13:59:00;;;;;;;;;;;19.80;99.90;;;;;;6213937;23;19916;-91
2022/07/06 14:01:29;;;;;;;;;;;19.70;99.90;;;;;;6191095;23;20325;-88
2022/07/06 14:04:04;;;;;;;;;;;;;;;;;;;;;
2022/07/06 14:06:36;;;;;;;;;;;19.50;99.90;;;;;;6214260;23;19924;-91
2022/07/06 14:09:02;;;;;;;;;;;19.50;99.90;;;;;;6186190;23;19916;-90
2022/07/06 14:11:28;;;;;;;;;;;19.40;99.90;;;;;;6213911;23;20320;-86
2022/07/06 14:13:54;;;;;;;;;;;19.30;99.90;;;;;;6214054;23;19922;-90
2022/07/06 14:16:19;;;;;;;;;;;19.40;99.90;;;;;;6163889;23;19923;-88
2022/07/06 14:18:45;;;;;;;;;;;19.40;99.90;;;;;;6188845;23;19922;-87
2022/07/06 14:21:10;;;;;;;;;;;19.30;99.90;;;;;;6213794;23;19924;-87
2022/07/06 14:23:36;;;;;;;;;;;19.30;99.90;;;;;;6165001;23;19954;-87